Météo Cheval Rigon

 

Relevés d'aujourd'hui



 

20/2/20
Time         Wind Dir   Wind Spd  Wind Gust   Humidity       Temp   Tot Rain Wind Chill  Dew Point   Barom SL Humidity R Temp Out R Tot Rain R   WindCh R   Dew Pt R SL Barom R Temp Out H Temp Out L  DailyRain   HourRain   24HrRain   RainRate  MonthRain
                          km/hr      km/hr          %         C         mm         C         C         mb       %/hr      C/hr      mm/hr      C/hr      C/hr      mm/hr         C         C         mm         mm         mm      mm/hr         mm
0:00              136          2          3         95        5.9      66.40        5.9        5.2    1027.30        1.8       0.10      0.029       0.11       0.38     -0.482        5.9        5.9       0.00       0.00       0.60      0.000      26.00
0:15              136          0          3         94        5.9      66.40        5.9        5.0    1027.20        0.5       0.02      0.022       0.03       0.11     -0.459        5.9        5.9       0.00       0.00       0.60      0.000      26.00
0:30              136          2          3         93        5.7      66.40        5.7        4.6    1027.10       -0.6      -0.18      0.017      -0.18      -0.26     -0.447        5.9        5.6       0.00       0.00       0.60      0.000      26.00
0:45              136          0          2         94        5.3      66.40        5.3        4.4    1026.97        0.5      -0.43      0.014      -0.43      -0.35     -0.467        5.9        5.3       0.00       0.00       0.60      0.000      26.00
1:00              159          2          5         94        5.5      66.40        5.5        4.6    1026.80        0.4      -0.19      0.011      -0.19      -0.13     -0.510        5.9        5.3       0.00       0.00       0.60      0.000      26.00
1:15              155          2          3         94        5.5      66.40        5.5        4.6    1026.90        0.3      -0.16      0.008      -0.15      -0.11     -0.313        5.9        5.3       0.00       0.00       0.60      0.000      26.00
1:30              161          0          5         94        5.5      66.40        5.5        4.6    1026.80        0.2      -0.12      0.006      -0.11      -0.08     -0.332        5.9        5.3       0.00       0.00       0.60      0.000      26.00
1:45              160          0          3         94        5.3      66.40        5.3        4.4    1026.69        0.2      -0.24      0.005      -0.23      -0.21     -0.347        5.9        5.3       0.00       0.00       0.60      0.000      26.00
2:00              162          0          5         94        5.3      66.40        5.3        4.4    1026.42        0.1      -0.24      0.004      -0.23      -0.21     -0.509        5.9        5.3       0.00       0.00       0.60      0.000      26.00
2:15              157          0          5         93        5.0      66.40        5.0        4.0    1026.32       -0.7      -0.43      0.003      -0.42      -0.54     -0.491        5.9        5.0       0.00       0.00       0.60      0.000      26.00
2:30              156          2          2         93        4.8      66.40        4.8        3.8    1026.15       -0.6      -0.48      0.002      -0.48      -0.58     -0.526        5.9        4.8       0.00       0.00       0.60      0.000      26.00
2:45              156          0          3         93        4.6      66.40        4.6        3.6    1026.08       -0.5      -0.58      0.002      -0.57      -0.65     -0.465        5.9        4.6       0.00       0.00       0.60      0.000      26.00
3:00              156          0          3         94        4.6      66.40        4.6        3.7    1025.98        0.5      -0.44      0.001      -0.43      -0.36     -0.452        5.9        4.5       0.00       0.00       0.60      0.000      26.00
3:15              156          0          0         94        5.0      66.40        5.0        4.1    1025.81        0.4       0.00      0.001       0.01       0.06     -0.496        5.9        4.5       0.00       0.00       0.60      0.000      26.00
3:30              156          0          3         93        5.1      66.40        5.1        4.1    1025.64       -0.6       0.10      0.001       0.10       0.00     -0.532        5.9        4.5       0.00       0.00       0.60      0.000      26.00
3:45              110          2          6         93        5.2      66.40        5.2        4.1    1025.61       -0.5       0.12      0.001       0.14       0.05     -0.445        5.9        4.5       0.00       0.00       0.60      0.000      26.00
4:00              110          2          5         92        4.8      66.40        4.8        3.6    1025.41       -1.3      -0.25      0.001      -0.22      -0.45     -0.519        5.9        4.5       0.00       0.00       0.60      0.000      26.00
4:15              107          0          5         92        4.2      66.40        4.2        3.0    1025.17       -1.0      -0.68      0.000      -0.65      -0.83     -0.619        5.9        4.2       0.00       0.00       0.60      0.000      26.00
4:30              107          0          5         93        3.8      66.40        3.8        2.8    1025.00        0.2      -0.92      0.000      -0.89      -0.89     -0.623        5.9        3.8       0.00       0.00       0.60      0.000      26.00
4:45              108          2          5         93        3.7      66.40        3.7        2.6    1025.00        0.1      -0.82      0.000      -0.79      -0.79     -0.488        5.9        3.7       0.00       0.00       0.60      0.000      26.00
5:00              126          0          6         93        3.6      66.40        3.6        2.5    1024.97        0.1      -0.74      0.000      -0.67      -0.72     -0.408        5.9        3.6       0.00       0.00       0.40      0.000      26.00
5:15              105          8          8         93        3.3      66.40        1.2        2.3    1024.90        0.1      -0.78      0.000      -2.79      -0.76     -0.377        5.9        3.3       0.00       0.00       0.40      0.000      26.00
5:30              115          2          8         94        3.2      66.40        3.2        2.4    1024.87        1.0      -0.70      0.000      -0.49      -0.55     -0.328        5.9        3.2       0.00       0.00       0.40      0.000      26.00
5:45              141          2          8         94        3.1      66.40        3.1        2.2    1024.90        0.8      -0.70      0.000      -0.44      -0.58     -0.233        5.9        3.1       0.00       0.00       0.40      0.000      26.00
6:00              107          2          5         94        3.0      66.40        3.0        2.1    1024.90        0.6      -0.59      0.000      -0.38      -0.50     -0.171        5.9        3.0       0.00       0.00       0.40      0.000      26.00

 


 

 

 

Retour accueil